Aviation Digital Data Service (ADDS)

Output produced by METARs form (1649 UTC 27 February 2015)
found at http://aviationweather.gov/adds/metars/
 
KBGR 271121Z 2712/2812 32005KT P6SM FEW120 BKN200 
     FM271500 31008G15KT P6SM FEW120 SCT250 
     FM280000 VRB02KT P6SM SCT250